Portada
METAR-TAF:

METAR-TAF

Aeroports :

Kèmerovo, Rússia

latitud: 55-19-48N, longitud: 086-04-48E, altitud: 260 m

Observació

L'informe es va fer fa 22 minuts, a les 03:30 UTC
Vent 12 kt del Sud
Temperatura 0°C
Humitat 69%
Pressió 1026 hPa
Visibilitat 10 km o més
sense núvols per sota de 1500 mi sense presència de cumulonimbus.

METAR: UNEE 300330Z 18006MPS CAVOK M00/M05 Q1026 R23/CLRD60 NOSIG RMK QFE746

Hora: 10:52 (03:52 UTC)

Pronòstic

L'informe es va fer fa 1 hora i 52 minuts, a les 02:00 UTC
Pronòstic vàlid del 30 a les 03 UTC al 31 a les 03 UTC
Vent 12 kt del Sud amb ràfegues de 23 kt
Visibilitat 10 km o més
sense núvols per sota de 1500 mi sense presència de cumulonimbus.
Temporalment
l' 30 a les 03 UTC al 30 a les 12 UTC
Vent 16 kt del Oest/Sud-Oest amb ràfegues de 29 kt

TAF: UNEE 300200Z 3003/3103 18006G12MPS CAVOK TEMPO 3003/3012 24008G15MPS

Observacions i pronòstics meteorològics de més de 4000 aeroports (METAR i TAF).

Les estacions disponibles són els punts grocs i vermells al mapa.

Posi el ratolí al punt desitjat per veure el nom de l'estació.

Feu clic per veure les observacions i els pronòstics meteorològics.

Per canviar el mapa: feu clic els botons verds amb una creu de color negre per apropar; al botó verd amb un guió per allunyar la imatge; o en les fletxes verdes per a mapes adjacents.


METAR-TAF: